createdAt,value
2017-01-06T00:00:15.806Z,-5.2
2017-01-06T00:01:15.674Z,-5.22
2017-01-06T00:02:15.679Z,-5.27
2017-01-06T00:03:15.643Z,-5.2
2017-01-06T00:04:15.685Z,-5.12
2017-01-06T00:05:15.692Z,-5.11
2017-01-06T00:06:15.682Z,-5.29
2017-01-06T00:07:15.757Z,-5.47
2017-01-06T00:08:15.651Z,-5.47
2017-01-06T00:09:15.696Z,-5.4
2017-01-06T00:10:15.715Z,-5.47
2017-01-06T00:11:15.749Z,-4.5
2017-01-06T00:12:15.650Z,-5.52
2017-01-06T00:13:15.724Z,-5.41
2017-01-06T00:14:15.768Z,-5.41
2017-01-06T00:15:15.769Z,-5.38
2017-01-06T00:16:15.722Z,-5.24
2017-01-06T00:17:15.729Z,-5.42
2017-01-06T00:18:15.759Z,-5.38
2017-01-06T00:19:15.763Z,-5.24
2017-01-06T00:20:15.765Z,-5.4
2017-01-06T00:21:15.839Z,-5.41
2017-01-06T00:22:15.748Z,-5.44
2017-01-06T00:23:15.812Z,-5.47
2017-01-06T00:24:15.696Z,-5.48
2017-01-06T00:25:15.725Z,-5.5
2017-01-06T00:26:15.692Z,-5.51
2017-01-06T00:27:15.823Z,-5.59
2017-01-06T00:28:15.758Z,-5.52
2017-01-06T00:29:15.766Z,-5.55
2017-01-06T00:30:15.973Z,-5.7
2017-01-06T00:31:15.842Z,-5.62
2017-01-06T00:32:15.778Z,-5.58
2017-01-06T00:33:15.775Z,-5.59
2017-01-06T00:34:15.792Z,-5.47
2017-01-06T00:35:15.815Z,-5.41
2017-01-06T00:36:15.795Z,-5.52
2017-01-06T00:37:15.787Z,-5.29
2017-01-06T00:38:15.734Z,-5.29
2017-01-06T00:39:15.815Z,-5.42
2017-01-06T00:40:15.806Z,-5.48
2017-01-06T00:41:16.032Z,-5.48
2017-01-06T00:42:15.876Z,-5.58
2017-01-06T00:43:15.752Z,-5.65
2017-01-06T00:44:15.738Z,-5.58
2017-01-06T00:45:15.810Z,-5.55
2017-01-06T00:46:15.985Z,-5.62
2017-01-06T00:47:15.808Z,-5.62
2017-01-06T00:48:15.902Z,-5.51
2017-01-06T00:49:15.775Z,-5.59
2017-01-06T00:50:15.813Z,-5.6
2017-01-06T00:51:15.863Z,-5.5
2017-01-06T00:52:15.918Z,-5.58
2017-01-06T00:53:15.964Z,-5.51
2017-01-06T00:54:15.767Z,-5.6
2017-01-06T00:55:15.906Z,-5.59
2017-01-06T00:56:15.888Z,-5.7
2017-01-06T00:57:15.840Z,-5.68
2017-01-06T00:58:15.850Z,-5.7
2017-01-06T00:59:15.868Z,-5.83
2017-01-06T01:00:15.904Z,-5.83
2017-01-06T01:01:15.854Z,-5.76
2017-01-06T01:02:16.044Z,-5.92
2017-01-06T01:03:15.938Z,-5.95
2017-01-06T01:04:15.865Z,-5.92
2017-01-06T01:05:15.939Z,-5.91
2017-01-06T01:06:15.870Z,-5.87
2017-01-06T01:07:15.922Z,-5.95
2017-01-06T01:08:15.805Z,-5.84
2017-01-06T01:09:15.887Z,-5.73
2017-01-06T01:10:15.871Z,-5.73
2017-01-06T01:11:15.880Z,-5.55
2017-01-06T01:12:15.954Z,-5.45
2017-01-06T01:13:15.956Z,-5.48
2017-01-06T01:14:15.949Z,-5.3
2017-01-06T01:15:15.882Z,-5.24
2017-01-06T01:16:15.837Z,-5.19
2017-01-06T01:17:15.973Z,-5.33
2017-01-06T01:18:15.904Z,-5.42
2017-01-06T01:19:15.872Z,-5.47
2017-01-06T01:20:16.371Z,-5.48
2017-01-06T01:21:15.921Z,-5.44
2017-01-06T01:22:15.899Z,-5.66
2017-01-06T01:23:15.922Z,-5.59
2017-01-06T01:24:15.976Z,-5.47
2017-01-06T01:25:15.938Z,-5.48
2017-01-06T01:26:15.916Z,-5.55
2017-01-06T01:27:15.915Z,-5.6
2017-01-06T01:28:15.925Z,-5.73
2017-01-06T01:29:15.993Z,-5.81
2017-01-06T01:30:15.984Z,-5.79
2017-01-06T01:31:15.931Z,-5.76
2017-01-06T01:32:15.992Z,-5.97
2017-01-06T01:33:16.025Z,-5.87
2017-01-06T01:34:15.930Z,-5.89
2017-01-06T01:35:15.942Z,-5.95
2017-01-06T01:36:15.895Z,-5.98
2017-01-06T01:37:15.960Z,-5.99
2017-01-06T01:38:15.973Z,-5.95
2017-01-06T01:39:15.942Z,-5.92
2017-01-06T01:40:15.995Z,-5.95
2017-01-06T01:41:15.911Z,-6.07
2017-01-06T01:42:15.957Z,-5.97
2017-01-06T01:43:16.019Z,-5.99
2017-01-06T01:44:15.959Z,-6.08
2017-01-06T01:45:15.961Z,-6.2
2017-01-06T01:46:15.960Z,-6.04
2017-01-06T01:47:15.911Z,-6.08
2017-01-06T01:48:15.963Z,-6.1
2017-01-06T01:49:15.966Z,-6.26
2017-01-06T01:50:16.064Z,-6.12
2017-01-06T01:51:16.040Z,-6.12
2017-01-06T01:52:16.010Z,-6.01
2017-01-06T01:53:15.927Z,-5.5
2017-01-06T01:54:15.965Z,-6.07
2017-01-06T01:55:15.983Z,-6.02
2017-01-06T01:56:16.006Z,-6.04
2017-01-06T01:57:15.961Z,-5.99
2017-01-06T01:58:16.001Z,-5.97
2017-01-06T01:59:16.003Z,-5.91
2017-01-06T02:00:16.050Z,-5.83
2017-01-06T02:01:16.066Z,-5.86
2017-01-06T02:02:15.936Z,-6.02
2017-01-06T02:03:16.022Z,-5.94
2017-01-06T02:04:16.052Z,-5.98
2017-01-06T02:05:16.060Z,-5.92
2017-01-06T02:06:16.029Z,-5.95
2017-01-06T02:07:16.018Z,-5.94
2017-01-06T02:08:16.063Z,-5.89
2017-01-06T02:09:16.032Z,-5.79
2017-01-06T02:10:16.037Z,-5.66
2017-01-06T02:11:16.039Z,-5.7
2017-01-06T02:12:16.037Z,-5.77
2017-01-06T02:13:16.054Z,-5.8
2017-01-06T02:14:16.040Z,-5.79
2017-01-06T02:15:16.108Z,-5.97
2017-01-06T02:16:16.102Z,-6.01
2017-01-06T02:17:15.980Z,-5.94
2017-01-06T02:18:15.997Z,-6.02
2017-01-06T02:19:16.286Z,-6.12
2017-01-06T02:20:16.090Z,-6.01
2017-01-06T02:21:16.033Z,-6.07
2017-01-06T02:22:16.045Z,-6.07
2017-01-06T02:23:16.075Z,-6.12
2017-01-06T02:24:16.029Z,-6.19
2017-01-06T02:25:16.066Z,-6.2
2017-01-06T02:26:16.114Z,-6.28
2017-01-06T02:27:16.010Z,-6.34
2017-01-06T02:28:16.068Z,-6.34
2017-01-06T02:29:16.089Z,-6.28
2017-01-06T02:30:16.078Z,-6.22
2017-01-06T02:31:16.048Z,-6.01
2017-01-06T02:32:16.090Z,-5.92
2017-01-06T02:33:16.030Z,-5.89
2017-01-06T02:34:16.026Z,-6.02
2017-01-06T02:35:16.089Z,-5.91
2017-01-06T02:36:16.093Z,-5.97
2017-01-06T02:37:16.092Z,-6.07
2017-01-06T02:38:16.041Z,-6.15
2017-01-06T02:39:16.164Z,-6.04
2017-01-06T02:40:16.085Z,-6.12
2017-01-06T02:41:16.157Z,-6.13
2017-01-06T02:42:16.049Z,-6.07
2017-01-06T02:43:16.181Z,-6.13
2017-01-06T02:44:16.115Z,-6.2
2017-01-06T02:45:16.518Z,-6.1
2017-01-06T02:46:16.189Z,-6.13
2017-01-06T02:47:16.192Z,-6.05
2017-01-06T02:48:16.131Z,-6.01
2017-01-06T02:49:16.181Z,-6.01
2017-01-06T02:50:16.154Z,-5.99
2017-01-06T02:51:16.087Z,-6.08
2017-01-06T02:52:16.093Z,-6.05
2017-01-06T02:53:16.091Z,-6.2
2017-01-06T02:54:16.090Z,-6.1
2017-01-06T02:55:16.241Z,-6.15
2017-01-06T02:56:16.465Z,-6.19
2017-01-06T02:57:16.219Z,-6.15
2017-01-06T02:58:16.618Z,-6.07
2017-01-06T02:59:16.098Z,-6.13
2017-01-06T03:00:16.095Z,-6.23
2017-01-06T03:01:16.113Z,-6.34
2017-01-06T03:02:16.154Z,-6.41
2017-01-06T03:03:16.582Z,-6.55
2017-01-06T03:04:16.125Z,-6.58
2017-01-06T03:05:16.166Z,-6.62
2017-01-06T03:06:16.177Z,-6.73
2017-01-06T03:07:16.230Z,-6.68
2017-01-06T03:08:16.191Z,-6.55
2017-01-06T03:09:16.177Z,-6.4
2017-01-06T03:10:16.117Z,-6.44
2017-01-06T03:11:16.261Z,-6.43
2017-01-06T03:12:16.151Z,-6.41
2017-01-06T03:13:16.212Z,-6.36
2017-01-06T03:14:16.128Z,-6.31
2017-01-06T03:15:16.204Z,-6.25
2017-01-06T03:16:16.186Z,-6.19
2017-01-06T03:17:16.228Z,-6.23
2017-01-06T03:18:16.205Z,-6.23
2017-01-06T03:19:16.223Z,-6.22
2017-01-06T03:20:16.141Z,-6.31
2017-01-06T03:21:16.219Z,-6.25
2017-01-06T03:22:16.350Z,-6.4
2017-01-06T03:23:16.310Z,-6.4
2017-01-06T03:24:16.354Z,-6.41
2017-01-06T03:25:16.247Z,-6.46
2017-01-06T03:26:16.381Z,-6.6
2017-01-06T03:27:16.247Z,-6.62
2017-01-06T03:28:16.265Z,-6.76
2017-01-06T03:29:16.248Z,-6.8
2017-01-06T03:30:16.183Z,-6.91
2017-01-06T03:31:16.241Z,-6.89
2017-01-06T03:32:16.236Z,-7.02
2017-01-06T03:33:16.310Z,-7.07
2017-01-06T03:34:16.298Z,-7.07
2017-01-06T03:35:16.246Z,-7.07
2017-01-06T03:36:16.312Z,-7.15
2017-01-06T03:37:16.189Z,-7.15
2017-01-06T03:38:16.180Z,-7.12
2017-01-06T03:39:16.253Z,-7.13
2017-01-06T03:40:16.204Z,-7.07
2017-01-06T03:41:16.263Z,-7.06
2017-01-06T03:42:16.264Z,-7.07
2017-01-06T03:43:16.320Z,-7.09
2017-01-06T03:44:16.517Z,-7.15
2017-01-06T03:45:16.283Z,-7.12
2017-01-06T03:46:16.220Z,-7.09
2017-01-06T03:47:16.223Z,-6.87
2017-01-06T03:48:16.296Z,-7.05
2017-01-06T03:49:16.236Z,-7.01
2017-01-06T03:50:16.302Z,-6.84
2017-01-06T03:51:16.340Z,-6.91
2017-01-06T03:52:16.301Z,-6.94
2017-01-06T03:53:16.475Z,-7.02
2017-01-06T03:54:16.234Z,-6.99
2017-01-06T03:55:16.382Z,-7.01
2017-01-06T03:56:16.308Z,-6.91
2017-01-06T03:57:16.302Z,-6.89
2017-01-06T03:58:16.325Z,-6.89
2017-01-06T03:59:16.319Z,-6.88
2017-01-06T04:00:16.429Z,-6.97
2017-01-06T04:01:16.323Z,-6.98
2017-01-06T04:02:16.336Z,-6.95
2017-01-06T04:03:16.271Z,-6.87
2017-01-06T04:04:16.396Z,-6.83
2017-01-06T04:05:16.313Z,-6.77
2017-01-06T04:06:16.339Z,-6.81
2017-01-06T04:07:16.424Z,-6.67
2017-01-06T04:08:16.397Z,-6.63
2017-01-06T04:09:16.337Z,-6.62
2017-01-06T04:10:16.412Z,-6.62
2017-01-06T04:11:16.330Z,-6.68
2017-01-06T04:12:16.334Z,-6.67
2017-01-06T04:13:16.353Z,-6.76
2017-01-06T04:14:16.292Z,-6.83
2017-01-06T04:15:16.368Z,-6.88
2017-01-06T04:16:16.550Z,-6.88
2017-01-06T04:17:16.312Z,-6.89
2017-01-06T04:18:16.310Z,-6.95
2017-01-06T04:19:16.445Z,-6.87
2017-01-06T04:20:16.300Z,-6.88
2017-01-06T04:21:16.473Z,-7.02
2017-01-06T04:22:16.391Z,-6.97
2017-01-06T04:23:16.428Z,-7.02
2017-01-06T04:24:16.418Z,-7.05
2017-01-06T04:25:16.387Z,-6.99
2017-01-06T04:26:16.435Z,-7.12
2017-01-06T04:27:16.410Z,-7.16
2017-01-06T04:28:16.440Z,-7.12
2017-01-06T04:29:16.438Z,-7.12
2017-01-06T04:30:16.405Z,-7.05
2017-01-06T04:31:16.469Z,-6.91
2017-01-06T04:32:16.506Z,-6.91
2017-01-06T04:33:16.414Z,-6.91
2017-01-06T04:34:16.369Z,-6.91
2017-01-06T04:35:16.423Z,-6.84
2017-01-06T04:36:16.464Z,-6.8
2017-01-06T04:37:16.495Z,-6.84
2017-01-06T04:38:16.442Z,-6.81
2017-01-06T04:39:16.376Z,-6.77
2017-01-06T04:40:16.419Z,-6.77
2017-01-06T04:41:16.435Z,-6.81
2017-01-06T04:42:16.477Z,-6.71
2017-01-06T04:43:16.424Z,-6.71
2017-01-06T04:44:16.429Z,-6.71
2017-01-06T04:45:16.388Z,-6.73
2017-01-06T04:46:16.429Z,-6.78
2017-01-06T04:47:16.436Z,-6.78
2017-01-06T04:48:16.490Z,-6.7
2017-01-06T04:49:16.442Z,-6.74
2017-01-06T04:50:16.450Z,-6.7
2017-01-06T04:51:16.481Z,-6.73
2017-01-06T04:52:16.392Z,-6.83
2017-01-06T04:53:16.475Z,-6.8
2017-01-06T04:54:16.522Z,-6.84
2017-01-06T04:55:16.520Z,-6.95
2017-01-06T04:56:17.165Z,-6.94
2017-01-06T04:57:16.550Z,-6.97
2017-01-06T04:58:16.480Z,-7.06
2017-01-06T04:59:16.479Z,-7.01
2017-01-06T05:00:16.551Z,-7.09
2017-01-06T05:01:16.512Z,-6.92
2017-01-06T05:02:16.551Z,-6.95
2017-01-06T05:03:16.595Z,-7.05
2017-01-06T05:04:16.534Z,-7.1
2017-01-06T05:05:16.484Z,-7.16
2017-01-06T05:06:16.550Z,-7.19
2017-01-06T05:07:16.492Z,-7.16
2017-01-06T05:08:16.521Z,-7.17
2017-01-06T05:09:16.514Z,-7.02
2017-01-06T05:10:16.464Z,-6.97
2017-01-06T05:11:16.459Z,-6.95
2017-01-06T05:12:16.564Z,-6.92
2017-01-06T05:13:16.508Z,-6.89
2017-01-06T05:14:16.476Z,-6.89
2017-01-06T05:15:16.597Z,-6.92
2017-01-06T05:16:16.477Z,-6.97
2017-01-06T05:17:16.576Z,-7.01
2017-01-06T05:18:16.635Z,-7.12
2017-01-06T05:19:16.603Z,-7.17
2017-01-06T05:20:16.587Z,-7.22
2017-01-06T05:21:16.593Z,-7.24
2017-01-06T05:22:16.608Z,-7.3
2017-01-06T05:23:16.545Z,-7.51
2017-01-06T05:24:16.570Z,-7.45
2017-01-06T05:25:16.569Z,-7.42
2017-01-06T05:26:16.611Z,-7.49
2017-01-06T05:27:16.499Z,-7.52
2017-01-06T05:28:16.689Z,-7.65
2017-01-06T05:29:16.580Z,-7.73
2017-01-06T05:30:16.699Z,-7.69
2017-01-06T05:31:16.726Z,-7.8
2017-01-06T05:32:16.573Z,-7.75
2017-01-06T05:33:16.583Z,-7.72
2017-01-06T05:34:16.583Z,-7.7
2017-01-06T05:35:16.526Z,-7.77
2017-01-06T05:36:16.667Z,-7.75
2017-01-06T05:37:16.535Z,-7.66
2017-01-06T05:38:16.644Z,-7.62
2017-01-06T05:39:16.571Z,-7.56
2017-01-06T05:40:16.622Z,-7.7
2017-01-06T05:41:16.596Z,-7.65
2017-01-06T05:42:16.582Z,-7.72
2017-01-06T05:43:16.642Z,-7.73
2017-01-06T05:44:16.635Z,-7.86
2017-01-06T05:45:16.658Z,-7.77
2017-01-06T05:46:16.602Z,-7.8
2017-01-06T05:47:16.596Z,-7.81
2017-01-06T05:48:16.618Z,-7.87
2017-01-06T05:49:16.602Z,-7.88
2017-01-06T05:50:16.619Z,-7.94
2017-01-06T05:51:16.667Z,-7.93
2017-01-06T05:52:16.647Z,-7.86
2017-01-06T05:53:16.672Z,-7.83
2017-01-06T05:54:16.625Z,-7.84
2017-01-06T05:55:16.548Z,-7.77
2017-01-06T05:56:16.630Z,-7.63
2017-01-06T05:57:16.845Z,-7.67
2017-01-06T05:58:16.562Z,-7.45
2017-01-06T05:59:16.701Z,-7.48
2017-01-06T06:00:16.702Z,-7.54
2017-01-06T06:01:16.722Z,-7.48
2017-01-06T06:02:16.777Z,-7.45
2017-01-06T06:03:16.694Z,-7.49
2017-01-06T06:04:16.594Z,-7.47
2017-01-06T06:05:16.578Z,-7.48
2017-01-06T06:06:16.656Z,-7.54
2017-01-06T06:07:16.597Z,-7.69
2017-01-06T06:08:16.682Z,-7.67
2017-01-06T06:09:16.642Z,-7.69
2017-01-06T06:10:16.720Z,-7.69
2017-01-06T06:11:16.663Z,-7.75
2017-01-06T06:12:16.723Z,-7.75
2017-01-06T06:13:16.688Z,-7.72
2017-01-06T06:14:16.742Z,-7.72
2017-01-06T06:15:16.665Z,-7.52
2017-01-06T06:16:16.671Z,-7.28
2017-01-06T06:17:16.669Z,-7.06
2017-01-06T06:18:16.614Z,-6.98
2017-01-06T06:19:16.741Z,-6.8
2017-01-06T06:20:16.735Z,-6.59
2017-01-06T06:21:16.619Z,-6.52
2017-01-06T06:22:16.634Z,-6.37
2017-01-06T06:23:16.710Z,-6.33
2017-01-06T06:24:16.665Z,-6.36
2017-01-06T06:25:16.742Z,-6.63
2017-01-06T06:26:16.699Z,-6.78
2017-01-06T06:27:16.762Z,-6.8
2017-01-06T06:28:16.700Z,-6.92
2017-01-06T06:29:16.774Z,-6.7
2017-01-06T06:30:16.702Z,-6.98
2017-01-06T06:31:16.644Z,-6.97
2017-01-06T06:32:16.648Z,-6.99
2017-01-06T06:33:16.660Z,-7.07
2017-01-06T06:34:16.758Z,-7.17
2017-01-06T06:35:16.737Z,-7.28
2017-01-06T06:36:16.740Z,-7.16
2017-01-06T06:37:16.737Z,-7.06
2017-01-06T06:38:16.740Z,-6.87
2017-01-06T06:39:16.738Z,-6.76
2017-01-06T06:40:16.783Z,-6.77
2017-01-06T06:41:16.809Z,-6.8
2017-01-06T06:42:16.745Z,-6.73
2017-01-06T06:43:16.688Z,-6.81
2017-01-06T06:44:16.746Z,-6.89
2017-01-06T06:45:16.720Z,-6.6
2017-01-06T06:46:16.702Z,-6.58
2017-01-06T06:47:16.690Z,-6.49
2017-01-06T06:48:16.770Z,-6.31
2017-01-06T06:49:16.758Z,-6.28
2017-01-06T06:50:16.760Z,-6.02
2017-01-06T06:51:16.758Z,-6.07
2017-01-06T06:52:16.827Z,-5.94
2017-01-06T06:53:16.822Z,-5.99
2017-01-06T06:54:16.845Z,-6.13
2017-01-06T06:55:16.777Z,-6.01
2017-01-06T06:56:16.811Z,-5.92
2017-01-06T06:57:16.839Z,-5.98
2017-01-06T06:58:16.799Z,-5.87
2017-01-06T06:59:16.835Z,-5.77
2017-01-06T07:00:16.769Z,-5.74
2017-01-06T07:01:16.816Z,-5.62
2017-01-06T07:02:16.785Z,-5.59
2017-01-06T07:03:16.769Z,-5.66
2017-01-06T07:04:16.795Z,-5.65
2017-01-06T07:05:16.854Z,-5.68
2017-01-06T07:06:16.805Z,-5.11
2017-01-06T07:07:16.816Z,-5.83
2017-01-06T07:08:16.888Z,-5.79
2017-01-06T07:09:16.894Z,-5.45
2017-01-06T07:10:16.807Z,-5.86
2017-01-06T07:11:16.809Z,-5.91
2017-01-06T07:12:16.853Z,-5.94
2017-01-06T07:13:16.767Z,-5.87
2017-01-06T07:14:16.839Z,-5.89
2017-01-06T07:15:16.847Z,-5.8
2017-01-06T07:16:16.777Z,-5.84
2017-01-06T07:17:16.852Z,-5.84
2017-01-06T07:18:16.888Z,-5.86
2017-01-06T07:19:16.899Z,-5.91
2017-01-06T07:20:16.898Z,-5.98
2017-01-06T07:21:16.849Z,-6.08
2017-01-06T07:22:16.863Z,-6.26
2017-01-06T07:23:16.868Z,-6.28
2017-01-06T07:24:16.971Z,-6.4
2017-01-06T07:25:16.871Z,-6.44
2017-01-06T07:26:16.919Z,-6.44
2017-01-06T07:27:16.799Z,-6.44
2017-01-06T07:28:17.063Z,-6.4
2017-01-06T07:29:16.802Z,-6.31
2017-01-06T07:30:16.813Z,-6.08
2017-01-06T07:31:16.911Z,-5.91
2017-01-06T07:32:16.878Z,-5.95
2017-01-06T07:33:17.160Z,-6.07
2017-01-06T07:34:16.890Z,-5.98
2017-01-06T07:35:16.886Z,-5.92
2017-01-06T07:36:16.874Z,-5.8
2017-01-06T07:37:16.951Z,-5.68
2017-01-06T07:38:16.907Z,-5.63
2017-01-06T07:39:16.860Z,-5.6
2017-01-06T07:40:16.960Z,-5.65
2017-01-06T07:41:16.972Z,-5.63
2017-01-06T07:42:16.976Z,-5.87
2017-01-06T07:43:16.910Z,-5.8
2017-01-06T07:44:17.035Z,-5.87
2017-01-06T07:45:16.850Z,-5.91
2017-01-06T07:46:16.932Z,-5.95
2017-01-06T07:47:16.962Z,-5.94
2017-01-06T07:48:16.943Z,-6.01
2017-01-06T07:49:16.998Z,-6.08
2017-01-06T07:50:17.003Z,-6.1
2017-01-06T07:51:16.998Z,-6.25
2017-01-06T07:52:16.876Z,-6.26
2017-01-06T07:53:16.952Z,-6.38
2017-01-06T07:54:16.954Z,-6.43
2017-01-06T07:55:17.020Z,-6.52
2017-01-06T07:56:16.963Z,-6.34
2017-01-06T07:57:16.942Z,-6.4
2017-01-06T07:58:16.937Z,-6.51
2017-01-06T07:59:16.958Z,-6.65
2017-01-06T08:00:17.092Z,-6.68
2017-01-06T08:01:16.945Z,-6.52
2017-01-06T08:02:16.949Z,-6.49
2017-01-06T08:03:16.973Z,-6.44
2017-01-06T08:04:16.968Z,-6.41
2017-01-06T08:05:16.977Z,-6.46
2017-01-06T08:06:17.029Z,-6.37
2017-01-06T08:07:16.993Z,-6.6
2017-01-06T08:08:16.934Z,-6.4
2017-01-06T08:09:17.027Z,-6.49
2017-01-06T08:10:17.040Z,-6.52
2017-01-06T08:11:16.942Z,-6.46
2017-01-06T08:12:17.040Z,-6.37
2017-01-06T08:13:16.919Z,-6.34
2017-01-06T08:14:16.942Z,-6.28
2017-01-06T08:15:17.051Z,-6.41
2017-01-06T08:16:17.112Z,-6.28
2017-01-06T08:17:16.947Z,-6.15
2017-01-06T08:18:16.948Z,-6.07
2017-01-06T08:19:17.064Z,-5.95
2017-01-06T08:20:17.004Z,-5.86
2017-01-06T08:21:17.035Z,-5.63
2017-01-06T08:22:17.220Z,-5.59
2017-01-06T08:23:17.064Z,-5.52
2017-01-06T08:24:17.024Z,-5.44
2017-01-06T08:25:17.069Z,-5.35
2017-01-06T08:26:17.013Z,-5.35
2017-01-06T08:27:17.093Z,-5.37
2017-01-06T08:28:17.026Z,-5.29
2017-01-06T08:29:17.085Z,-5.35
2017-01-06T08:30:17.046Z,-5.29
2017-01-06T08:31:17.091Z,-5.24
2017-01-06T08:32:17.055Z,-5.14
2017-01-06T08:33:17.029Z,-5.11
2017-01-06T08:34:17.064Z,-5.17
2017-01-06T08:35:17.104Z,-5.1
2017-01-06T08:36:17.073Z,-5.17
2017-01-06T08:37:17.080Z,-5.12
2017-01-06T08:38:17.048Z,-5.1
2017-01-06T08:39:16.998Z,-5.11
2017-01-06T08:40:17.120Z,-5.08
2017-01-06T08:41:17.065Z,-5.11
2017-01-06T08:42:17.069Z,-5.4
2017-01-06T08:43:17.129Z,-5.3
2017-01-06T08:44:17.088Z,-5.27
2017-01-06T08:45:17.132Z,-5.33
2017-01-06T08:46:17.112Z,-5.33
2017-01-06T08:47:17.126Z,-5.27
2017-01-06T08:48:17.047Z,-5.37
2017-01-06T08:49:17.027Z,-5.33
2017-01-06T08:50:17.149Z,-5.2
2017-01-06T08:51:17.072Z,-5.23
2017-01-06T08:52:17.077Z,-5.24
2017-01-06T08:53:17.119Z,-5.17
2017-01-06T08:54:17.179Z,-5.31
2017-01-06T08:55:17.148Z,-5.22
2017-01-06T08:56:17.179Z,-5.22
2017-01-06T08:57:17.126Z,-5.27
2017-01-06T08:58:17.056Z,-5.27
2017-01-06T08:59:17.064Z,-5.27
2017-01-06T09:00:17.198Z,-5.3
2017-01-06T09:01:17.175Z,-4.8
2017-01-06T09:02:17.199Z,-5.22
2017-01-06T09:03:17.167Z,-5.37
2017-01-06T09:04:17.072Z,-5.24
2017-01-06T09:05:17.125Z,-5.33
2017-01-06T09:06:17.204Z,-5.37
2017-01-06T09:07:17.137Z,-5.27
2017-01-06T09:08:17.134Z,-5.17
2017-01-06T09:09:17.127Z,-5.17
2017-01-06T09:10:17.075Z,-5.12
2017-01-06T09:11:17.080Z,-5.17
2017-01-06T09:12:17.158Z,-5.12
2017-01-06T09:13:17.243Z,-5.11
2017-01-06T09:14:17.147Z,-5.01
2017-01-06T09:15:17.242Z,-5.07
2017-01-06T09:16:17.228Z,-5.04
2017-01-06T09:17:17.157Z,-4.93
2017-01-06T09:18:17.100Z,-4.8
2017-01-06T09:19:17.169Z,-4.8
2017-01-06T09:20:17.254Z,-4.86
2017-01-06T09:21:17.227Z,-4.86
2017-01-06T09:22:17.176Z,-4.84
2017-01-06T09:23:17.229Z,-4.83
2017-01-06T09:24:17.177Z,-4.73
2017-01-06T09:25:17.206Z,-4.61
2017-01-06T09:26:17.250Z,-4.63
2017-01-06T09:27:17.187Z,-4.55
2017-01-06T09:28:17.342Z,-4.51
2017-01-06T09:29:17.261Z,-4.44
2017-01-06T09:30:17.374Z,-4.51
2017-01-06T09:31:17.609Z,-4.55
2017-01-06T09:32:17.319Z,-4.59
2017-01-06T09:33:17.257Z,-4.71
2017-01-06T09:34:17.143Z,-4.75
2017-01-06T09:35:17.270Z,-4.73
2017-01-06T09:36:17.231Z,-4.68
2017-01-06T09:37:17.243Z,-4.53
2017-01-06T09:38:17.222Z,-4.34
2017-01-06T09:39:17.295Z,-4.33
2017-01-06T09:40:17.389Z,-4.39
2017-01-06T09:41:17.448Z,-4.44
2017-01-06T09:42:17.312Z,-4.59
2017-01-06T09:43:17.181Z,-4.62
2017-01-06T09:44:17.175Z,-4.65
2017-01-06T09:45:17.298Z,-4.66
2017-01-06T09:46:17.233Z,-4.62
2017-01-06T09:47:17.294Z,-4.54
2017-01-06T09:48:17.380Z,-4.63
2017-01-06T09:49:17.187Z,-4.54
2017-01-06T09:50:17.344Z,-4.5
2017-01-06T09:51:17.322Z,-4.57
2017-01-06T09:52:17.380Z,-4.36
2017-01-06T09:53:17.540Z,-4.39
2017-01-06T09:54:17.460Z,-4.37
2017-01-06T09:55:17.504Z,-4.32
2017-01-06T09:56:17.698Z,-4.19
2017-01-06T09:57:17.803Z,-4.19
2017-01-06T09:58:17.352Z,-4.14
2017-01-06T09:59:17.293Z,-4.12
2017-01-06T10:00:17.404Z,-4.08
2017-01-06T10:01:17.407Z,-4.57
2017-01-06T10:02:17.287Z,-4.01
2017-01-06T10:03:17.339Z,-4.08
2017-01-06T10:04:17.444Z,-4.19
2017-01-06T10:05:17.223Z,-4.08
2017-01-06T10:06:17.349Z,-4.14
2017-01-06T10:07:17.303Z,-4.15
2017-01-06T10:08:17.504Z,-4.25
2017-01-06T10:09:17.364Z,-4.22
2017-01-06T10:10:17.426Z,-4.22
2017-01-06T10:11:17.420Z,-3.9
2017-01-06T10:12:17.425Z,-3.86
2017-01-06T10:13:17.387Z,-3.61
2017-01-06T10:14:17.329Z,-3.32
2017-01-06T10:15:17.256Z,-3.17
2017-01-06T10:16:17.258Z,-2.94
2017-01-06T10:17:17.369Z,-3.07
2017-01-06T10:18:17.344Z,-2.9
2017-01-06T10:19:17.352Z,-2.78
2017-01-06T10:20:17.376Z,-2.6
2017-01-06T10:21:17.371Z,-2.57
2017-01-06T10:22:17.350Z,-2.65
2017-01-06T10:23:17.423Z,-2.53
2017-01-06T10:24:17.439Z,-2.21
2017-01-06T10:25:17.350Z,-2.21
2017-01-06T10:26:17.307Z,-2.32
2017-01-06T10:27:17.385Z,-2.37
2017-01-06T10:28:17.424Z,-2.23
2017-01-06T10:29:17.380Z,-2.1
2017-01-06T10:30:17.402Z,-2.05
2017-01-06T10:31:17.422Z,-1.94
2017-01-06T10:32:17.484Z,-1.74
2017-01-06T10:33:17.365Z,-1.58
2017-01-06T10:34:17.312Z,-1.67
2017-01-06T10:35:17.525Z,-1.71
2017-01-06T10:36:17.346Z,-1.55
2017-01-06T10:37:17.377Z,-1.48
2017-01-06T10:38:18.098Z,-1.37
2017-01-06T10:39:17.437Z,-1.45
2017-01-06T10:40:17.586Z,-1.25
2017-01-06T10:41:17.405Z,-1.24
2017-01-06T10:42:17.392Z,-0.79
2017-01-06T10:43:17.338Z,-0.76
2017-01-06T10:44:17.381Z,-0.74
2017-01-06T10:45:17.437Z,-0.91
2017-01-06T10:46:17.498Z,-1.45
2017-01-06T10:47:17.436Z,-1.63
2017-01-06T10:48:17.472Z,-1.76
2017-01-06T10:49:17.393Z,-1.76
2017-01-06T10:50:17.445Z,-2.05
2017-01-06T10:51:17.406Z,-2.05
2017-01-06T10:52:17.343Z,-1.82
2017-01-06T10:53:17.383Z,-1.52
2017-01-06T10:54:17.481Z,-1.82
2017-01-06T10:55:17.418Z,-1.07
2017-01-06T10:56:17.451Z,-0.56
2017-01-06T10:57:17.450Z,-0.58
2017-01-06T10:58:17.465Z,-0.46
2017-01-06T10:59:17.435Z,-0.28
2017-01-06T11:00:17.437Z,-0.61
2017-01-06T11:01:17.466Z,-0.92
2017-01-06T11:02:17.450Z,-1.04
2017-01-06T11:03:17.525Z,-1.32
2017-01-06T11:04:17.481Z,-1.25
2017-01-06T11:05:17.533Z,-1.11
2017-01-06T11:06:17.389Z,-1.03
2017-01-06T11:07:17.477Z,-0.99
2017-01-06T11:08:17.483Z,-0.93
2017-01-06T11:09:17.451Z,-0.92
2017-01-06T11:10:17.530Z,-0.93
2017-01-06T11:11:17.461Z,-1.04
2017-01-06T11:12:17.815Z,-0.93
2017-01-06T11:13:17.478Z,-0.69
2017-01-06T11:14:17.504Z,-0.22
2017-01-06T11:15:17.469Z,0.05
2017-01-06T11:16:17.523Z,-0.12
2017-01-06T11:17:17.490Z,-0.34
2017-01-06T11:18:17.477Z,-0.15
2017-01-06T11:19:17.646Z,0.2
2017-01-06T11:20:17.623Z,0.37
2017-01-06T11:21:17.517Z,0.39
2017-01-06T11:22:17.654Z,0.26
2017-01-06T11:23:17.493Z,-0.43
2017-01-06T11:24:17.516Z,-0.77
2017-01-06T11:25:17.459Z,-0.7
2017-01-06T11:26:17.617Z,-0.92
2017-01-06T11:27:17.443Z,-1.19
2017-01-06T11:28:17.689Z,-1.09
2017-01-06T11:29:17.632Z,-1.16
2017-01-06T11:30:17.460Z,-0.95
2017-01-06T11:31:17.519Z,-0.45
2017-01-06T11:32:17.667Z,-0.07
2017-01-06T11:33:17.555Z,-0.59
2017-01-06T11:34:17.551Z,-0.79
2017-01-06T11:35:19.268Z,-1.24
2017-01-06T11:36:17.564Z,-1.21
2017-01-06T11:37:17.697Z,-1.28
2017-01-06T11:38:17.543Z,-1.28
2017-01-06T11:39:17.556Z,-1.32
2017-01-06T11:40:17.714Z,-1.3
2017-01-06T11:41:17.653Z,-1.1
2017-01-06T11:42:17.548Z,-1.07
2017-01-06T11:43:17.552Z,-0.76
2017-01-06T11:44:17.761Z,-0.62
2017-01-06T11:45:17.662Z,-0.31
2017-01-06T11:46:17.634Z,-0.25
2017-01-06T11:47:17.585Z,-0.13
2017-01-06T11:48:17.513Z,-0.3
2017-01-06T11:49:17.599Z,-0.37
2017-01-06T11:50:17.581Z,-0.28
2017-01-06T11:51:17.659Z,-0.38
2017-01-06T11:52:17.593Z,-0.12
2017-01-06T11:53:17.744Z,-0.28
2017-01-06T11:54:17.593Z,-0.13
2017-01-06T11:55:17.689Z,-0.46
2017-01-06T11:56:17.620Z,-0.38
2017-01-06T11:57:17.635Z,-0.04
2017-01-06T11:58:20.768Z,0.02
2017-01-06T11:59:17.591Z,-0.27
2017-01-06T12:00:17.623Z,-0.09
2017-01-06T12:01:17.606Z,-0.34
2017-01-06T12:02:17.584Z,-0.27
2017-01-06T12:03:17.745Z,-0.38
2017-01-06T12:04:17.720Z,-0.43
2017-01-06T12:05:17.606Z,-0.69
2017-01-06T12:06:17.631Z,-0.38
2017-01-06T12:07:17.695Z,-0.02
2017-01-06T12:08:17.672Z,0.41
2017-01-06T12:09:17.589Z,0.09
2017-01-06T12:10:17.622Z,0.31
2017-01-06T12:11:17.629Z,0.37
2017-01-06T12:12:17.615Z,0.08
2017-01-06T12:13:17.613Z,-0.23
2017-01-06T12:14:17.824Z,-0.54
2017-01-06T12:15:17.709Z,-0.77
2017-01-06T12:16:17.914Z,-1.16
2017-01-06T12:17:17.640Z,-1.1
2017-01-06T12:18:17.625Z,-1.09
2017-01-06T12:19:17.695Z,-1.09
2017-01-06T12:20:17.647Z,-1.21
2017-01-06T12:21:17.661Z,-1.31
2017-01-06T12:22:17.741Z,-1.38
2017-01-06T12:23:17.635Z,-1.49
2017-01-06T12:24:17.784Z,-1.49
2017-01-06T12:25:17.689Z,-1.5
2017-01-06T12:26:17.613Z,-1.63
2017-01-06T12:27:17.597Z,-1.63
2017-01-06T12:28:17.721Z,-1.66
2017-01-06T12:29:17.712Z,-1.73
2017-01-06T12:30:17.673Z,-1.66
2017-01-06T12:31:17.672Z,-1.52
2017-01-06T12:32:17.710Z,-1.61
2017-01-06T12:33:17.753Z,-1.42
2017-01-06T12:34:17.671Z,-1.42
2017-01-06T12:35:17.673Z,-1.17
2017-01-06T12:36:17.677Z,-0.95
2017-01-06T12:37:17.754Z,-0.91
2017-01-06T12:38:17.673Z,-0.85
2017-01-06T12:39:17.959Z,-0.66
2017-01-06T12:40:17.797Z,-0.54
2017-01-06T12:41:17.657Z,-0.69
2017-01-06T12:42:17.687Z,-0.76
2017-01-06T12:43:17.662Z,-0.48
2017-01-06T12:44:17.732Z,-0.48
2017-01-06T12:45:17.710Z,-0.41
2017-01-06T12:46:17.732Z,-0.36
2017-01-06T12:47:17.747Z,-0.37
2017-01-06T12:48:17.842Z,-0.41
2017-01-06T12:49:17.829Z,-0.3
2017-01-06T12:50:17.720Z,-0.31
2017-01-06T12:51:17.961Z,-0.49
2017-01-06T12:52:17.791Z,-0.31
2017-01-06T12:53:18.217Z,-0.31
2017-01-06T12:54:17.868Z,-0.28
2017-01-06T12:55:17.757Z,-0.15